Terminal Aerodrome Forecast
Issued by NWS Knoxville/Tri Cities, TN

Home | Current Version | Previous Version | Text Only | Print | Product List | Glossary On
Versions: 1 2 3 4 5 6 7 8 9 10 11 12 13 14 15 16 17 18 19 20 21 22 23 24 25 26 27 28 29 30 31 32 33 34 35 36 37 38 39 40 41
000
FTUS44 KMRX 182320
TAFTYS
TAF
KTYS 182320Z 1900/1924 03007KT P6SM VCSH SCT035 BKN100
      TEMPO 1900/1902 5SM -RA BR
     FM190900 04007KT 4SM -SHRA BR OVC035
     FM191400 10007KT 2SM RA BR VCTS SCT008 OVC015CB
     FM191600 22014G24KT P6SM VCTS BKN025CB OVC150=

USA.gov is the U.S. government's official web portal to all federal, state and local government web resources and services.